Time;durP1;ratioP1;P1;durP2;ratioP2;P2;SDS_P1;SDS_P2;PMS_P1;PMS_P2;Temp;Humidity;BMP_temperature;BMP_pressure;BME280_temperature;BME280_humidity;BME280_pressure;Samples;Min_cycle;Max_cycle;Signal;HPM_P1;HPM_P2
2022/05/11 00:00:49;;;;;;;5.80;2.50;;;;;;;13.41;31.34;100707.50;117375;1186;21856;-50
2022/05/11 00:03:18;;;;;;;8.00;2.40;;;;;;;13.39;31.33;100701.35;117323;1182;22318;-55
2022/05/11 00:05:47;;;;;;;5.70;1.90;;;;;;;13.39;31.50;100702.05;117319;1185;23484;-55
2022/05/11 00:08:15;;;;;;;4.80;2.40;;;;;;;13.40;31.47;100705.56;117339;1185;22824;-55
2022/05/11 00:10:43;;;;;;;5.00;2.10;;;;;;;13.38;31.55;100700.84;117388;1186;23554;-50
2022/05/11 00:13:11;;;;;;;5.30;2.40;;;;;;;13.36;31.54;100702.98;117360;1186;23544;-49
2022/05/11 00:15:41;;;;;;;4.60;2.30;;;;;;;13.35;31.64;100702.48;117299;1186;23005;-50
2022/05/11 00:18:10;;;;;;;5.80;2.40;;;;;;;13.33;31.58;100699.01;117377;1186;23641;-55
2022/05/11 00:20:38;;;;;;;7.20;2.30;;;;;;;13.32;31.47;100697.25;117360;1186;26077;-50
2022/05/11 00:23:07;;;;;;;9.80;2.90;;;;;;;13.33;31.68;100694.77;117271;1186;24281;-55
2022/05/11 00:25:35;;;;;;;6.90;2.70;;;;;;;13.34;31.71;100693.34;117384;1185;24158;-49
2022/05/11 00:28:03;;;;;;;5.90;2.40;;;;;;;13.32;31.73;100691.42;117379;1185;23464;-50
2022/05/11 00:30:32;;;;;;;10.60;2.70;;;;;;;13.30;31.68;100691.64;117315;1185;22062;-54
2022/05/11 00:33:01;;;;;;;5.40;2.30;;;;;;;13.28;31.71;100688.67;117503;1186;21923;-55
2022/05/11 00:35:30;;;;;;;6.30;2.30;;;;;;;13.26;31.79;100690.12;117559;1186;23609;-55
2022/05/11 00:38:00;;;;;;;5.40;2.30;;;;;;;13.22;31.90;100688.08;117427;1185;21858;-55
2022/05/11 00:40:28;;;;;;;5.40;2.50;;;;;;;13.20;31.89;100688.83;117301;1184;21854;-55
2022/05/11 00:42:57;;;;;;;4.00;2.20;;;;;;;13.22;32.04;100691.61;117421;1184;23547;-55
2022/05/11 00:45:26;;;;;;;6.60;2.30;;;;;;;13.22;32.09;100688.10;117532;1184;21967;-56
2022/05/11 00:47:57;;;;;;;4.60;2.10;;;;;;;13.18;32.02;100686.05;117566;1186;22963;-50
2022/05/11 00:50:27;;;;;;;9.30;2.30;;;;;;;13.15;31.93;100685.05;117417;1185;21895;-54
2022/05/11 00:52:55;;;;;;;7.20;2.30;;;;;;;13.10;32.08;100682.33;117447;1181;21889;-50
2022/05/11 00:55:31;;;;;;;5.20;2.30;;;;;;;13.03;32.06;100681.03;117596;1186;24146;-55
2022/05/11 00:58:11;;;;;;;4.30;2.20;;;;;;;12.96;32.12;100679.40;117389;1185;22636;-55
2022/05/11 01:00:40;;;;;;;3.50;2.30;;;;;;;12.90;32.13;100682.14;117320;1185;21864;-55
2022/05/11 01:03:23;;;;;;;5.00;2.60;;;;;;;12.84;32.28;100685.92;117337;1183;21875;-54
2022/05/11 01:05:51;;;;;;;4.50;2.40;;;;;;;12.75;32.23;100684.32;117523;1185;23345;-54
2022/05/11 01:08:19;;;;;;;4.20;2.00;;;;;;;12.71;32.35;100683.85;117337;1185;24162;-54
2022/05/11 01:10:48;;;;;;;4.30;2.00;;;;;;;12.73;32.47;100684.88;117337;1184;23556;-55
2022/05/11 01:13:17;;;;;;;4.90;2.30;;;;;;;12.80;32.61;100689.33;117627;1184;22050;-55
2022/05/11 01:15:48;;;;;;;6.60;2.50;;;;;;;12.89;32.71;100687.27;117405;1186;21846;-50
2022/05/11 01:18:16;;;;;;;5.80;2.50;;;;;;;12.95;32.70;100681.16;117324;1185;21863;-55
2022/05/11 01:20:44;;;;;;;5.20;2.30;;;;;;;12.96;32.73;100684.50;117481;1186;22983;-55
2022/05/11 01:24:03;;;;;;;4.20;2.20;;;;;;;12.95;32.66;100684.52;117539;1184;23550;-54
2022/05/11 01:26:33;;;;;;;6.40;2.30;;;;;;;12.98;32.74;100679.19;117243;1185;21852;-50
2022/05/11 01:29:02;;;;;;;4.80;2.20;;;;;;;13.01;32.89;100681.95;117349;1185;21904;-55
2022/05/11 01:31:30;;;;;;;7.10;2.40;;;;;;;13.01;32.90;100680.55;117462;1186;23465;-50
2022/05/11 01:33:59;;;;;;;7.70;2.60;;;;;;;13.01;33.06;100683.19;117384;1185;21924;-50
2022/05/11 01:36:31;;;;;;;5.80;2.40;;;;;;;13.02;33.14;100680.17;117334;1185;24180;-49
2022/05/11 01:39:03;;;;;;;4.30;2.30;;;;;;;13.07;33.05;100683.08;117428;1184;23509;-55
2022/05/11 01:41:40;;;;;;;7.00;2.60;;;;;;;13.08;33.08;100682.17;117537;1185;22611;-49
2022/05/11 01:44:11;;;;;;;4.70;2.40;;;;;;;13.10;33.25;100684.41;117410;1185;22812;-49
2022/05/11 01:46:39;;;;;;;3.80;2.30;;;;;;;13.14;33.30;100683.31;117247;1180;21853;-52
2022/05/11 01:49:07;;;;;;;4.80;2.50;;;;;;;13.17;33.45;100686.08;117355;1186;23551;-55
2022/05/11 01:51:36;;;;;;;4.70;2.50;;;;;;;13.21;33.19;100686.19;117383;1185;24232;-50
2022/05/11 01:54:04;;;;;;;6.90;2.30;;;;;;;13.24;33.34;100683.66;117349;1185;21850;-50
2022/05/11 01:56:33;;;;;;;6.00;2.10;;;;;;;13.24;33.37;100676.95;117448;1184;24153;-50
2022/05/11 01:59:01;;;;;;;5.50;2.20;;;;;;;13.25;33.41;100674.98;117511;1184;21876;-49
2022/05/11 02:01:30;;;;;;;5.00;2.70;;;;;;;13.28;33.43;100675.65;117561;1185;23537;-49
2022/05/11 02:04:00;;;;;;;5.80;2.50;;;;;;;13.30;33.54;100671.38;117365;1186;21845;-56
2022/05/11 02:09:17;;;;;;;4.00;2.00;;;;;;;13.34;33.64;100677.48;117441;1185;24154;-55
2022/05/11 02:11:45;;;;;;;3.80;1.90;;;;;;;13.36;33.67;100681.50;117370;1185;23538;-55
2022/05/11 02:14:13;;;;;;;5.50;2.00;;;;;;;13.35;33.71;100675.86;117303;1186;23544;-50
2022/05/11 02:16:42;;;;;;;4.60;2.10;;;;;;;13.33;33.60;100674.31;117316;1185;23544;-50
2022/05/11 02:19:11;;;;;;;4.20;2.10;;;;;;;13.33;33.62;100676.79;117353;1185;23025;-57
2022/05/11 02:21:40;;;;;;;11.00;2.60;;;;;;;13.35;33.69;100678.88;117456;1184;21849;-50
2022/05/11 02:24:08;;;;;;;4.80;2.20;;;;;;;13.38;33.71;100677.57;117405;1185;23563;-50
2022/05/11 02:26:37;;;;;;;4.00;2.50;;;;;;;13.41;33.84;100678.42;117453;1186;23376;-51
2022/05/11 02:29:06;;;;;;;5.60;2.70;;;;;;;13.42;33.76;100677.18;117330;1186;21845;-50
2022/05/11 02:31:35;;;;;;;10.70;2.20;;;;;;;13.45;33.76;100676.08;117332;1185;23819;-51
2022/05/11 02:34:06;;;;;;;5.80;2.60;;;;;;;13.44;33.84;100674.84;117415;1185;21858;-51
2022/05/11 02:36:34;;;;;;;8.00;2.80;;;;;;;13.46;33.93;100675.54;117442;1182;22633;-51
2022/05/11 02:39:03;;;;;;;7.00;3.60;;;;;;;13.46;33.96;100670.42;117382;1185;23587;-50
2022/05/11 02:41:32;;;;;;;8.80;4.40;;;;;;;13.48;33.95;100665.23;117266;1185;21884;-50
2022/05/11 02:44:00;;;;;;;11.50;6.10;;;;;;;13.51;34.10;100664.66;117278;1186;24004;-51
2022/05/11 02:46:28;;;;;;;10.30;4.00;;;;;;;13.56;34.11;100671.98;117516;1186;22825;-50
2022/05/11 02:48:57;;;;;;;7.40;3.10;;;;;;;13.62;34.24;100673.09;117281;1186;21913;-50
2022/05/11 02:51:26;;;;;;;6.50;2.70;;;;;;;13.66;34.11;100671.95;117265;1186;23553;-50
2022/05/11 02:53:55;;;;;;;7.10;3.20;;;;;;;13.67;34.14;100671.05;117348;1188;21899;-50
2022/05/11 02:56:24;;;;;;;6.00;2.70;;;;;;;13.69;34.16;100672.23;117434;1184;23544;-50
2022/05/11 02:58:53;;;;;;;6.10;2.50;;;;;;;13.73;34.24;100670.92;117197;1186;21850;-50
2022/05/11 03:01:21;;;;;;;10.00;4.70;;;;;;;13.75;34.32;100670.52;117371;1185;23676;-50
2022/05/11 03:03:50;;;;;;;18.00;8.60;;;;;;;13.77;34.34;100667.65;117407;1185;22861;-50
2022/05/11 03:06:20;;;;;;;15.70;8.00;;;;;;;13.79;34.35;100669.04;117447;1184;22513;-50
2022/05/11 03:08:48;;;;;;;9.50;5.40;;;;;;;13.81;34.51;100671.29;117429;1185;24267;-51
2022/05/11 03:11:17;;;;;;;17.80;5.60;;;;;;;13.84;34.32;100673.89;117381;1184;22610;-50
2022/05/11 03:13:49;;;;;;;8.80;4.50;;;;;;;13.88;34.57;100681.73;117509;1184;23433;-51
2022/05/11 03:16:18;;;;;;;16.60;4.00;;;;;;;13.95;34.51;100680.86;117746;1179;24146;-57
2022/05/11 03:18:46;;;;;;;6.90;3.20;;;;;;;14.04;34.73;100682.27;117381;1185;21861;-51
2022/05/11 03:21:15;;;;;;;6.90;3.10;;;;;;;14.11;34.68;100683.87;117383;1185;21825;-56
2022/05/11 03:23:45;;;;;;;8.60;3.10;;;;;;;14.13;34.68;100685.95;117466;1186;22919;-51
2022/05/11 03:26:14;;;;;;;7.30;2.70;;;;;;;14.16;34.69;100692.93;117473;1186;23652;-51
2022/05/11 03:28:42;;;;;;;4.40;2.50;;;;;;;14.19;34.66;100697.46;117275;1186;21916;-51
2022/05/11 03:31:10;;;;;;;4.90;2.60;;;;;;;14.22;34.68;100697.76;117446;1185;23560;-51
2022/05/11 03:36:26;;;;;;;11.30;3.30;;;;;;;14.35;34.76;100704.70;117520;1186;22055;-56
2022/05/11 03:38:55;;;;;;;10.20;3.20;;;;;;;14.47;34.96;100707.08;117338;1185;21850;-56
2022/05/11 03:41:23;;;;;;;8.10;3.00;;;;;;;14.61;34.99;100709.95;117221;1186;22180;-55
2022/05/11 03:43:51;;;;;;;13.70;3.60;;;;;;;14.70;34.96;100711.31;117387;1185;22619;-51
2022/05/11 03:46:19;;;;;;;19.10;3.60;;;;;;;14.80;34.92;100714.27;117264;1186;23557;-51
2022/05/11 03:48:48;;;;;;;14.00;3.60;;;;;;;14.91;35.04;100717.54;117253;1185;21853;-51
2022/05/11 03:51:16;;;;;;;16.60;5.70;;;;;;;15.04;35.03;100718.09;117310;1185;23541;-55
2022/05/11 03:53:45;;;;;;;16.80;3.30;;;;;;;15.14;34.93;100713.08;117335;1182;23570;-51
2022/05/11 03:56:13;;;;;;;12.50;4.20;;;;;;;15.21;34.80;100717.85;117319;1186;23539;-52
2022/05/11 03:58:41;;;;;;;10.90;2.60;;;;;;;15.29;34.89;100720.28;117340;1185;23052;-56
2022/05/11 04:01:09;;;;;;;15.50;3.70;;;;;;;15.38;34.93;100728.89;117346;1185;23598;-51
2022/05/11 04:03:38;;;;;;;6.50;2.60;;;;;;;15.50;34.99;100731.77;117333;1186;24162;-55
2022/05/11 04:06:07;;;;;;;5.60;2.40;;;;;;;15.58;34.86;100727.46;117284;1186;21888;-54
2022/05/11 04:08:36;;;;;;;6.60;2.50;;;;;;;15.62;34.89;100731.61;117316;1186;23550;-53
2022/05/11 04:11:06;;;;;;;7.30;2.50;;;;;;;15.68;34.84;100731.27;117380;1185;23467;-51
2022/05/11 04:13:34;;;;;;;9.90;2.60;;;;;;;15.72;34.79;100727.42;117327;1185;23541;-51
2022/05/11 04:16:03;;;;;;;11.30;2.80;;;;;;;15.76;34.73;100732.27;117401;1185;23557;-51
2022/05/11 04:18:31;;;;;;;4.80;2.20;;;;;;;15.82;34.72;100728.58;117362;1185;21843;-55
2022/05/11 04:20:59;;;;;;;6.50;2.10;;;;;;;15.88;34.79;100727.36;117317;1185;23540;-51
2022/05/11 04:23:28;;;;;;;7.10;2.40;;;;;;;15.94;34.72;100727.21;117352;1185;23544;-51
2022/05/11 04:25:56;;;;;;;5.50;2.10;;;;;;;15.99;34.58;100726.16;117391;1185;21858;-54
2022/05/11 04:28:25;;;;;;;10.40;3.00;;;;;;;16.04;34.63;100730.27;117327;1185;23586;-55
2022/05/11 04:31:01;;;;;;;9.70;2.30;;;;;;;16.09;34.67;100733.66;117368;1185;24251;-55
2022/05/11 04:33:29;;;;;;;8.50;2.80;;;;;;;16.17;34.57;100735.36;117432;1185;22969;-55
2022/05/11 04:35:58;;;;;;;5.30;2.30;;;;;;;16.29;34.80;100740.69;117512;1184;24155;-55
2022/05/11 04:38:26;;;;;;;6.70;2.60;;;;;;;16.42;34.74;100740.64;117448;1184;22918;-55
2022/05/11 04:40:55;;;;;;;13.70;7.20;;;;;;;16.50;34.68;100738.27;117403;1185;21911;-55
2022/05/11 04:43:23;;;;;;;10.90;3.50;;;;;;;16.58;34.56;100735.36;117510;1185;23560;-53
2022/05/11 04:45:52;;;;;;;6.10;2.70;;;;;;;16.67;34.55;100732.98;117489;1185;24288;-53
2022/05/11 04:48:20;;;;;;;9.60;2.50;;;;;;;16.82;34.65;100729.30;117368;1185;21850;-53
2022/05/11 04:50:49;;;;;;;11.20;2.20;;;;;;;16.97;34.69;100729.88;117302;1186;24212;-53
2022/05/11 04:53:18;;;;;;;6.40;2.50;;;;;;;17.09;34.59;100730.20;117497;1185;21857;-56
2022/05/11 04:55:46;;;;;;;6.00;2.30;;;;;;;17.24;34.62;100728.80;117370;1184;22313;-52
2022/05/11 04:58:15;;;;;;;6.70;2.40;;;;;;;17.39;34.58;100725.82;117359;1185;24206;-53
2022/05/11 05:00:46;;;;;;;7.90;3.40;;;;;;;17.53;34.62;100732.95;117363;1186;21868;-54
2022/05/11 05:03:15;;;;;;;11.00;2.60;;;;;;;17.71;34.60;100730.17;117548;1185;22033;-53
2022/05/11 05:05:44;;;;;;;5.90;2.60;;;;;;;17.90;34.71;100730.19;117339;1185;21858;-56
2022/05/11 05:08:14;;;;;;;8.20;2.20;;;;;;;18.11;34.67;100732.44;117344;1186;21910;-55
2022/05/11 05:10:43;;;;;;;6.30;2.50;;;;;;;18.37;34.67;100731.09;117462;1184;22970;-55
2022/05/11 05:13:12;;;;;;;7.50;2.50;;;;;;;18.58;34.57;100730.44;117477;1186;21967;-56
2022/05/11 05:15:42;;;;;;;4.80;2.00;;;;;;;18.76;34.46;100733.13;117302;1186;21858;-53
2022/05/11 05:18:10;;;;;;;8.40;2.50;;;;;;;18.87;34.43;100727.14;117327;1185;23580;-55
2022/05/11 05:20:40;;;;;;;8.30;2.00;;;;;;;19.07;34.53;100731.71;117442;1185;21903;-56
2022/05/11 05:23:08;;;;;;;6.20;2.10;;;;;;;19.30;34.54;100725.39;117422;1186;21858;-54
2022/05/11 05:25:36;;;;;;;11.20;2.20;;;;;;;19.46;34.27;100723.24;117364;1185;23541;-55
2022/05/11 05:31:05;;;;;;;10.00;1.90;;;;;;;19.84;34.43;100725.17;117331;1185;23618;-55
2022/05/11 05:33:34;;;;;;;7.00;2.20;;;;;;;20.10;34.27;100726.98;117327;1186;24222;-55
2022/05/11 05:36:03;;;;;;;90.50;22.40;;;;;;;20.21;33.97;100725.09;117247;1186;22622;-54
2022/05/11 05:38:34;;;;;;;14.10;5.40;;;;;;;20.34;34.06;100721.08;117323;1184;21892;-54
2022/05/11 05:41:07;;;;;;;12.20;4.00;;;;;;;20.53;33.99;100718.95;117308;1186;23709;-55
2022/05/11 05:43:35;;;;;;;18.20;5.50;;;;;;;20.65;33.96;100722.80;117283;1186;21966;-55
2022/05/11 05:46:04;;;;;;;9.70;3.30;;;;;;;20.87;34.07;100721.60;117416;1186;24214;-54
2022/05/11 05:48:33;;;;;;;7.40;2.70;;;;;;;21.07;33.89;100725.04;117477;1185;23060;-54
2022/05/11 05:51:10;;;;;;;6.00;2.40;;;;;;;21.27;33.73;100722.98;117340;1185;23566;-56
2022/05/11 05:53:41;;;;;;;4.20;2.00;;;;;;;21.38;33.49;100723.83;117292;1186;21853;-56
2022/05/11 05:56:10;;;;;;;4.00;1.80;;;;;;;21.45;33.21;100718.65;117454;1185;21987;-55
2022/05/11 05:58:39;;;;;;;6.20;2.70;;;;;;;21.46;33.08;100720.21;117377;1185;21927;-56
2022/05/11 06:01:08;;;;;;;12.10;3.70;;;;;;;21.51;33.18;100721.88;117403;1185;21847;-55
2022/05/11 06:03:37;;;;;;;12.60;4.60;;;;;;;21.68;33.32;100723.16;117383;1184;23285;-55
2022/05/11 06:06:07;;;;;;;36.10;10.20;;;;;;;21.88;33.29;100723.51;117399;1186;22827;-56
2022/05/11 06:08:36;;;;;;;24.10;8.90;;;;;;;22.12;33.40;100726.17;117372;1185;21974;-54
2022/05/11 06:11:06;;;;;;;10.20;2.90;;;;;;;22.36;33.30;100726.81;117291;1185;23651;-54
2022/05/11 06:13:36;;;;;;;8.80;3.20;;;;;;;22.50;33.05;100730.70;117325;1185;22828;-54
2022/05/11 06:16:12;;;;;;;8.60;3.80;;;;;;;22.60;32.89;100733.67;117323;1185;21858;-54
2022/05/11 06:18:42;;;;;;;4.90;2.30;;;;;;;22.77;32.95;100733.44;117099;1186;22963;-54
2022/05/11 06:21:11;;;;;;;4.20;1.70;;;;;;;23.02;32.99;100731.30;117276;1185;22911;-54
2022/05/11 06:23:40;;;;;;;3.50;1.90;;;;;;;23.19;32.83;100733.70;117253;1186;21914;-55
2022/05/11 06:26:10;;;;;;;3.40;1.50;;;;;;;23.35;32.80;100738.84;117968;1186;22164;-55
2022/05/11 06:28:40;;;;;;;5.60;2.00;;;;;;;23.62;32.71;100733.13;118411;1185;21852;-55
2022/05/11 06:31:17;;;;;;;4.10;1.40;;;;;;;23.81;32.49;100731.23;117692;1185;23540;-54
2022/05/11 06:33:49;;;;;;;3.20;1.70;;;;;;;23.92;32.31;100730.39;117381;1180;22906;-55
2022/05/11 06:36:18;;;;;;;3.00;1.70;;;;;;;24.19;32.53;100732.08;117394;1185;21850;-56
2022/05/11 06:38:47;;;;;;;17.80;2.50;;;;;;;24.47;32.30;100730.45;117217;1186;23569;-55
2022/05/11 06:41:20;;;;;;;10.30;2.10;;;;;;;24.59;32.15;100730.23;117301;1186;22981;-56
2022/05/11 06:43:49;;;;;;;5.30;1.50;;;;;;;24.66;32.00;100732.13;117315;1185;21852;-54
2022/05/11 06:46:18;;;;;;;3.00;1.60;;;;;;;24.82;31.89;100729.52;117348;1185;24157;-55
2022/05/11 06:48:48;;;;;;;3.30;1.50;;;;;;;25.07;31.86;100731.23;117327;1185;21995;-56
2022/05/11 06:51:18;;;;;;;5.10;1.40;;;;;;;25.33;31.85;100730.33;117329;1185;22941;-55
2022/05/11 06:59:32;;;;;;;4.50;1.60;;;;;;;25.94;31.25;100734.44;117420;1185;21851;-56
2022/05/11 07:02:04;;;;;;;4.40;1.80;;;;;;;26.13;31.23;100733.83;117284;1185;24284;-55
2022/05/11 07:04:39;;;;;;;3.50;1.50;;;;;;;26.35;31.08;100729.52;117362;1185;23540;-54
2022/05/11 07:07:08;;;;;;;4.20;1.40;;;;;;;26.62;31.02;100728.09;117369;1182;21845;-55
2022/05/11 07:09:39;;;;;;;4.70;1.70;;;;;;;26.86;30.87;100726.38;117497;1185;21837;-57
2022/05/11 07:12:17;;;;;;;;;;;;;;;27.00;30.80;100730.33;117433;1185;21834;-56
2022/05/11 07:14:48;;;;;;;4.80;1.50;;;;;;;27.15;30.62;100725.92;117362;1185;23664;-55
2022/05/11 07:17:38;;;;;;;5.50;1.90;;;;;;;27.29;30.41;100728.63;117395;1185;22905;-55
2022/05/11 07:20:11;;;;;;;3.00;1.50;;;;;;;27.24;30.03;100726.69;117411;1185;21922;-55
2022/05/11 07:22:41;;;;;;;4.20;1.50;;;;;;;27.31;30.05;100724.55;117326;1185;21853;-56
2022/05/11 07:25:15;;;;;;;2.80;1.40;;;;;;;27.42;29.95;100724.08;117436;1185;23537;-56
2022/05/11 07:27:44;;;;;;;2.10;1.50;;;;;;;27.56;29.97;100724.38;117405;1185;23547;-56
2022/05/11 07:30:15;;;;;;;3.20;1.60;;;;;;;27.72;29.69;100722.78;117374;1186;23042;-55
2022/05/11 07:32:44;;;;;;;4.40;1.90;;;;;;;27.75;29.57;100724.90;117379;1182;21855;-56
2022/05/11 07:35:12;;;;;;;12.10;2.10;;;;;;;27.82;29.70;100720.40;117402;1179;22167;-56
2022/05/11 07:37:41;;;;;;;4.40;1.80;;;;;;;27.97;29.54;100720.27;117245;1186;22646;-56
2022/05/11 07:40:10;;;;;;;3.50;1.60;;;;;;;28.17;29.42;100722.34;117329;1183;21855;-56
2022/05/11 07:42:46;;;;;;;3.10;1.30;;;;;;;28.43;29.33;100720.40;117358;1185;23541;-56
2022/05/11 07:45:17;;;;;;;4.10;1.70;;;;;;;28.77;29.47;100715.96;117489;1185;23554;-57
2022/05/11 07:47:45;;;;;;;4.10;1.50;;;;;;;29.15;29.40;100715.33;117364;1185;22921;-54
2022/05/11 07:50:13;;;;;;;3.10;1.90;;;;;;;29.46;29.40;100716.35;117357;1185;23544;-55
2022/05/11 07:52:42;;;;;;;2.60;1.40;;;;;;;29.57;28.91;100714.64;117421;1186;23560;-55
2022/05/11 07:55:11;;;;;;;7.00;1.70;;;;;;;29.60;28.68;100713.15;117363;1185;22462;-56
2022/05/11 08:00:29;;;;;;;5.10;1.70;;;;;;;29.27;27.86;100705.27;117279;1185;22788;-57
2022/05/11 08:02:59;;;;;;;3.30;1.40;;;;;;;29.25;28.21;100702.19;117359;1185;21854;-56
2022/05/11 08:05:27;;;;;;;5.80;1.50;;;;;;;29.52;28.23;100702.43;117484;1185;21858;-56
2022/05/11 08:08:00;;;;;;;2.20;1.30;;;;;;;29.60;28.00;100698.62;117302;1185;21852;-56
2022/05/11 08:10:31;;;;;;;4.40;1.80;;;;;;;29.72;27.85;100696.36;117175;1187;21881;-56
2022/05/11 08:13:00;;;;;;;15.10;5.10;;;;;;;29.68;27.65;100696.47;117379;1184;23459;-56
2022/05/11 08:15:31;;;;;;;4.60;1.90;;;;;;;29.57;27.59;100694.41;117325;1185;21871;-56
2022/05/11 08:18:00;;;;;;;4.70;1.40;;;;;;;29.80;27.78;100692.73;117295;1186;23547;-55
2022/05/11 08:20:30;;;;;;;6.10;1.60;;;;;;;30.11;27.80;100689.64;117468;1186;23553;-55
2022/05/11 08:22:59;;;;;;;10.00;4.20;;;;;;;30.54;27.77;100694.46;117583;1185;23439;-55
2022/05/11 08:25:30;;;;;;;4.10;2.10;;;;;;;30.79;27.35;100693.60;117031;1187;21865;-56
2022/05/11 08:27:58;;;;;;;8.50;4.20;;;;;;;30.76;27.03;100692.48;117191;1186;23576;-56
2022/05/11 08:33:23;;;;;;;9.40;2.20;;;;;;;30.81;27.03;100688.77;117372;1185;24159;-55
2022/05/11 08:36:26;;;;;;;6.50;1.70;;;;;;;30.89;26.92;100688.23;117327;1185;23625;-56
2022/05/11 08:38:56;;;;;;;4.50;1.50;;;;;;;31.04;26.93;100686.98;117346;1186;21862;-56
2022/05/11 08:41:29;;;;;;;5.00;1.60;;;;;;;31.18;26.74;100684.41;117358;1186;23290;-54
2022/05/11 08:44:08;;;;;;;3.50;1.50;;;;;;;31.48;26.84;100681.92;117255;1186;23669;-57
2022/05/11 08:46:53;;;;;;;3.90;1.50;;;;;;;31.79;26.62;100684.02;117390;1185;21853;-56
2022/05/11 08:49:44;;;;;;;11.30;2.50;;;;;;;32.08;26.36;100682.29;117402;1184;22643;-57
2022/05/11 08:52:27;;;;;;;;;;;;;;;32.05;26.08;100681.31;117392;1185;22950;-57
2022/05/11 08:55:10;;;;;;;7.90;1.90;;;;;;;32.08;26.15;100675.01;117336;1185;23569;-57
2022/05/11 08:57:39;;;;;;;6.60;1.30;;;;;;;32.31;26.08;100671.55;117260;1186;23547;-56
2022/05/11 09:00:15;;;;;;;4.70;1.50;;;;;;;32.42;25.85;100665.94;117338;1180;24239;-56
2022/05/11 09:02:43;;;;;;;3.10;1.40;;;;;;;32.32;25.64;100661.59;117522;1182;21911;-56
2022/05/11 09:05:16;;;;;;;4.80;1.70;;;;;;;32.23;25.47;100666.84;117311;1185;21880;-56
2022/05/11 09:07:47;;;;;;;6.00;2.00;;;;;;;32.22;25.01;100665.91;117314;1186;22992;-56
2022/05/11 09:10:28;;;;;;;3.60;1.50;;;;;;;32.10;24.91;100660.33;117378;1185;21857;-56
2022/05/11 09:13:02;;;;;;;5.70;1.50;;;;;;;31.94;24.99;100660.66;117367;1185;21862;-55
2022/05/11 09:15:47;;;;;;;4.40;1.50;;;;;;;32.04;25.18;100659.83;117372;1185;24765;-56
2022/05/11 09:18:16;;;;;;;3.50;2.00;;;;;;;32.28;25.07;100659.63;117332;1185;23586;-56
2022/05/11 09:20:50;;;;;;;3.60;1.60;;;;;;;32.53;25.02;100655.20;117428;1185;21855;-56
2022/05/11 09:23:33;;;;;;;5.40;1.60;;;;;;;32.90;24.98;100650.90;117410;1181;24642;-56
2022/05/11 09:26:07;;;;;;;4.50;1.30;;;;;;;33.20;24.86;100646.14;117456;1185;22009;-55
2022/05/11 09:28:38;;;;;;;3.40;1.50;;;;;;;33.42;24.85;100646.64;117518;1185;23544;-56
2022/05/11 09:31:23;;;;;;;3.30;1.60;;;;;;;33.43;24.40;100647.86;117398;1185;22916;-56
2022/05/11 09:33:57;;;;;;;9.00;1.60;;;;;;;33.31;24.11;100651.00;117566;1186;22981;-56
2022/05/11 09:37:19;;;;;;;2.70;1.50;;;;;;;32.99;23.81;100654.13;117279;1185;24161;-57
2022/05/11 09:40:09;;;;;;;3.20;1.60;;;;;;;32.87;23.97;100651.71;117564;1185;23444;-56
2022/05/11 09:42:55;;;;;;;2.70;1.30;;;;;;;32.73;23.59;100646.02;117358;1185;21855;-54
2022/05/11 09:45:44;;;;;;;5.00;1.50;;;;;;;32.58;23.80;100646.27;117241;1184;21858;-55
2022/05/11 09:48:16;;;;;;;3.80;1.20;;;;;;;32.93;24.11;100640.17;119480;1184;22419;-55
2022/05/11 09:50:45;;;;;;;2.70;1.00;;;;;;;33.38;24.19;100635.41;119448;1184;21877;-56
2022/05/11 09:53:22;;;;;;;4.00;1.20;;;;;;;33.91;24.07;100628.86;117840;1185;21926;-55
2022/05/11 09:55:51;;;;;;;4.30;1.40;;;;;;;34.34;24.12;100624.30;117416;1184;23602;-55
2022/05/11 09:58:31;;;;;;;3.30;1.30;;;;;;;34.71;24.05;100621.17;117502;1184;21956;-56
2022/05/11 10:01:12;;;;;;;3.10;1.10;;;;;;;34.73;23.46;100620.56;117383;1185;22941;-55
2022/05/11 10:03:48;;;;;;;3.10;1.80;;;;;;;34.65;23.26;100621.97;117453;1185;21951;-55
2022/05/11 10:06:47;;;;;;;4.50;1.70;;;;;;;34.41;23.14;100623.54;117604;1185;23560;-55
2022/05/11 10:09:20;;;;;;;3.40;1.70;;;;;;;34.19;23.02;100624.85;117322;1186;21880;-56
2022/05/11 10:11:50;;;;;;;3.40;1.40;;;;;;;34.13;23.12;100622.69;117280;1186;22919;-56
2022/05/11 10:22:57;;;;;;;2.80;1.20;;;;;;;34.20;22.43;100621.79;117318;1186;23624;-56
2022/05/11 10:25:35;;;;;;;4.00;1.50;;;;;;;33.96;22.49;100620.73;117384;1185;22813;-56
2022/05/11 10:28:10;;;;;;;2.90;1.30;;;;;;;33.80;22.31;100623.47;117323;1186;23669;-55
2022/05/11 10:31:00;;;;;;;3.90;1.30;;;;;;;33.52;22.03;100625.73;117403;1184;21873;-56
2022/05/11 10:33:38;;;;;;;2.20;1.10;;;;;;;33.22;22.15;100626.86;117375;1185;23545;-56
2022/05/11 10:36:28;;;;;;;3.60;1.50;;;;;;;33.01;22.03;100627.39;117341;1186;23567;-56
2022/05/11 10:39:08;;;;;;;4.20;2.20;;;;;;;32.96;22.17;100628.13;117384;1183;21854;-57
2022/05/11 10:41:54;;;;;;;3.10;1.30;;;;;;;33.35;22.18;100626.46;117281;1185;21964;-56
2022/05/11 10:44:41;;;;;;;5.70;1.40;;;;;;;33.43;21.77;100627.58;117322;1185;23599;-56
2022/05/11 10:47:34;;;;;;;2.80;1.20;;;;;;;33.08;21.58;100626.37;117278;1184;23462;-56
2022/05/11 10:50:42;;;;;;;2.70;1.50;;;;;;;33.09;21.97;100623.38;118536;1185;21957;-57
2022/05/11 10:53:38;;;;;;;5.40;1.10;;;;;;;33.54;21.94;100625.95;117179;1186;23894;-57
2022/05/11 10:56:49;;;;;;;3.80;1.30;;;;;;;33.68;21.71;100627.95;117320;1190;23551;-56
2022/05/11 10:59:37;;;;;;;1.80;1.00;;;;;;;33.48;21.58;100624.16;117278;1186;21967;-56
2022/05/11 11:02:14;;;;;;;3.80;1.20;;;;;;;33.43;21.54;100625.09;117373;1185;24269;-57
2022/05/11 11:04:58;;;;;;;2.10;1.10;;;;;;;33.45;21.65;100624.55;117369;1185;21868;-57
2022/05/11 11:07:46;;;;;;;3.60;1.10;;;;;;;33.69;21.81;100621.95;117323;1186;21853;-56
2022/05/11 11:10:42;;;;;;;3.30;1.30;;;;;;;34.04;21.89;100621.88;117288;1186;23542;-57
2022/05/11 11:13:29;;;;;;;1.60;1.20;;;;;;;34.33;21.63;100621.08;117216;1186;22928;-57
2022/05/11 11:16:02;;;;;;;1.80;1.30;;;;;;;34.67;21.63;100616.84;117393;1185;21874;-56
2022/05/11 11:18:36;;;;;;;1.40;1.00;;;;;;;35.08;21.85;100620.88;117393;1185;22915;-56
2022/05/11 11:21:04;;;;;;;2.50;1.40;;;;;;;35.56;21.80;100621.16;117344;1186;21890;-56
2022/05/11 11:23:35;;;;;;;3.20;1.10;;;;;;;35.80;21.61;100615.81;117356;1185;23567;-57
2022/05/11 11:26:26;;;;;;;2.90;1.10;;;;;;;36.04;21.58;100612.33;117351;1186;22919;-57
2022/05/11 11:28:54;;;;;;;3.70;1.20;;;;;;;36.15;20.96;100606.86;117198;1186;24277;-58
2022/05/11 11:31:27;;;;;;;3.90;1.50;;;;;;;35.73;20.35;100608.80;117400;1186;23797;-58
2022/05/11 11:34:02;;;;;;;2.30;1.20;;;;;;;35.17;20.65;100609.46;117281;1189;22322;-55
2022/05/11 11:36:37;;;;;;;5.70;1.40;;;;;;;34.88;20.74;100610.85;117319;1185;23611;-56
2022/05/11 11:39:10;;;;;;;3.50;1.60;;;;;;;34.76;20.82;100607.14;117377;1185;23682;-57
2022/05/11 11:41:42;;;;;;;3.60;1.10;;;;;;;34.90;21.10;100603.33;117376;1185;21859;-55
2022/05/11 11:44:32;;;;;;;2.00;1.30;;;;;;;35.17;20.96;100602.56;117353;1185;23544;-55
2022/05/11 11:47:00;;;;;;;;;;;;;;;35.53;20.61;100601.98;117446;1185;23557;-55
2022/05/11 11:49:28;;;;;;;2.80;1.40;;;;;;;35.76;20.83;100597.18;117379;1184;23570;-55
2022/05/11 11:52:00;;;;;;;4.00;1.10;;;;;;;35.64;20.44;100589.92;117356;1185;23599;-56
2022/05/11 11:54:38;;;;;;;5.10;1.40;;;;;;;35.53;20.35;100590.16;117370;1184;22630;-56
2022/05/11 11:57:12;;;;;;;3.20;1.70;;;;;;;35.67;20.51;100592.45;117376;1186;23544;-56
2022/05/11 11:59:42;;;;;;;2.90;1.30;;;;;;;35.90;20.69;100592.73;117386;1185;22105;-57
2022/05/11 12:02:28;;;;;;;4.00;1.20;;;;;;;36.16;20.79;100587.20;117346;1186;21847;-56
2022/05/11 12:04:57;;;;;;;7.10;1.50;;;;;;;36.15;20.52;100578.09;117059;1188;22063;-57
2022/05/11 12:16:52;;;;;;;4.70;1.90;;;;;;;35.38;20.12;100577.33;117307;1186;23547;-56
2022/05/11 12:19:25;;;;;;;7.20;1.50;;;;;;;35.65;20.02;100575.59;117326;1186;23566;-57